sensor_id;sensor_type;location;lat;lon;timestamp;temperature;humidity
5358;DHT22;2702;51.014;7.170;2022-12-07T00:01:14;3.90;99.90
5358;DHT22;2702;51.014;7.170;2022-12-07T00:03:42;3.90;99.90
5358;DHT22;2702;51.014;7.170;2022-12-07T00:06:10;3.90;99.90
5358;DHT22;2702;51.014;7.170;2022-12-07T00:08:37;3.90;99.90
5358;DHT22;2702;51.014;7.170;2022-12-07T00:11:07;3.90;99.90
5358;DHT22;2702;51.014;7.170;2022-12-07T00:13:34;3.90;99.90
5358;DHT22;2702;51.014;7.170;2022-12-07T00:16:02;3.90;99.90
5358;DHT22;2702;51.014;7.170;2022-12-07T00:18:28;3.90;99.90
5358;DHT22;2702;51.014;7.170;2022-12-07T00:23:27;3.90;99.90
5358;DHT22;2702;51.014;7.170;2022-12-07T00:25:53;3.90;99.90
5358;DHT22;2702;51.014;7.170;2022-12-07T00:28:19;3.90;99.90
5358;DHT22;2702;51.014;7.170;2022-12-07T00:30:45;3.90;99.90
5358;DHT22;2702;51.014;7.170;2022-12-07T00:33:11;3.90;99.90
5358;DHT22;2702;51.014;7.170;2022-12-07T00:35:36;4.00;99.90
5358;DHT22;2702;51.014;7.170;2022-12-07T00:38:02;4.00;99.90
5358;DHT22;2702;51.014;7.170;2022-12-07T00:40:28;3.90;99.90
5358;DHT22;2702;51.014;7.170;2022-12-07T00:42:54;3.90;99.90
5358;DHT22;2702;51.014;7.170;2022-12-07T00:45:20;4.00;99.90
5358;DHT22;2702;51.014;7.170;2022-12-07T00:47:45;3.90;99.90
5358;DHT22;2702;51.014;7.170;2022-12-07T00:50:11;4.00;99.90
5358;DHT22;2702;51.014;7.170;2022-12-07T00:52:37;4.00;99.90
5358;DHT22;2702;51.014;7.170;2022-12-07T00:55:03;4.00;99.90
5358;DHT22;2702;51.014;7.170;2022-12-07T00:57:30;4.00;99.90
5358;DHT22;2702;51.014;7.170;2022-12-07T00:59:56;4.00;99.90
5358;DHT22;2702;51.014;7.170;2022-12-07T01:02:23;4.00;99.90
5358;DHT22;2702;51.014;7.170;2022-12-07T01:04:49;4.10;99.90
5358;DHT22;2702;51.014;7.170;2022-12-07T01:07:15;4.10;99.90
5358;DHT22;2702;51.014;7.170;2022-12-07T01:09:41;4.00;99.90
5358;DHT22;2702;51.014;7.170;2022-12-07T01:12:07;4.00;99.90
5358;DHT22;2702;51.014;7.170;2022-12-07T01:14:32;3.90;99.90
5358;DHT22;2702;51.014;7.170;2022-12-07T01:16:58;4.00;99.90
5358;DHT22;2702;51.014;7.170;2022-12-07T01:19:24;4.00;99.90
5358;DHT22;2702;51.014;7.170;2022-12-07T01:21:50;3.90;99.90
5358;DHT22;2702;51.014;7.170;2022-12-07T01:24:15;3.90;99.90
5358;DHT22;2702;51.014;7.170;2022-12-07T01:26:41;3.90;99.90
5358;DHT22;2702;51.014;7.170;2022-12-07T01:29:07;3.90;99.90
5358;DHT22;2702;51.014;7.170;2022-12-07T01:31:33;3.90;99.90
5358;DHT22;2702;51.014;7.170;2022-12-07T01:33:59;3.90;99.90
5358;DHT22;2702;51.014;7.170;2022-12-07T01:36:29;3.90;99.90
5358;DHT22;2702;51.014;7.170;2022-12-07T01:38:57;3.90;99.90
5358;DHT22;2702;51.014;7.170;2022-12-07T01:41:29;3.90;99.90
5358;DHT22;2702;51.014;7.170;2022-12-07T01:46:42;3.90;99.90
5358;DHT22;2702;51.014;7.170;2022-12-07T01:49:14;3.90;99.90
5358;DHT22;2702;51.014;7.170;2022-12-07T01:51:42;3.90;99.90
5358;DHT22;2702;51.014;7.170;2022-12-07T01:54:10;3.90;99.90
5358;DHT22;2702;51.014;7.170;2022-12-07T01:56:37;4.00;99.90
5358;DHT22;2702;51.014;7.170;2022-12-07T01:59:04;3.90;99.90
5358;DHT22;2702;51.014;7.170;2022-12-07T02:01:30;3.90;99.90
5358;DHT22;2702;51.014;7.170;2022-12-07T02:03:56;3.90;99.90
5358;DHT22;2702;51.014;7.170;2022-12-07T02:06:24;3.90;99.90
5358;DHT22;2702;51.014;7.170;2022-12-07T02:08:51;3.90;99.90
5358;DHT22;2702;51.014;7.170;2022-12-07T02:11:17;3.90;99.90
5358;DHT22;2702;51.014;7.170;2022-12-07T02:13:45;3.90;99.90
5358;DHT22;2702;51.014;7.170;2022-12-07T02:16:14;3.90;99.90
5358;DHT22;2702;51.014;7.170;2022-12-07T02:21:51;3.90;99.90
5358;DHT22;2702;51.014;7.170;2022-12-07T02:24:47;3.90;99.90
5358;DHT22;2702;51.014;7.170;2022-12-07T02:27:28;3.90;99.90
5358;DHT22;2702;51.014;7.170;2022-12-07T02:30:00;3.80;99.90
5358;DHT22;2702;51.014;7.170;2022-12-07T02:35:20;3.90;99.90
5358;DHT22;2702;51.014;7.170;2022-12-07T02:38:25;3.80;99.90
5358;DHT22;2702;51.014;7.170;2022-12-07T02:41:00;3.90;99.90
5358;DHT22;2702;51.014;7.170;2022-12-07T02:43:30;3.90;99.90
5358;DHT22;2702;51.014;7.170;2022-12-07T02:46:05;3.90;99.90
5358;DHT22;2702;51.014;7.170;2022-12-07T02:48:33;3.90;99.90
5358;DHT22;2702;51.014;7.170;2022-12-07T02:51:00;3.90;99.90
5358;DHT22;2702;51.014;7.170;2022-12-07T02:53:37;3.90;99.90
5358;DHT22;2702;51.014;7.170;2022-12-07T02:59:21;3.90;99.90
5358;DHT22;2702;51.014;7.170;2022-12-07T03:08:01;3.90;99.90
5358;DHT22;2702;51.014;7.170;2022-12-07T03:10:56;3.80;99.90
5358;DHT22;2702;51.014;7.170;2022-12-07T03:18:32;3.80;99.90
5358;DHT22;2702;51.014;7.170;2022-12-07T03:21:03;3.80;99.90
5358;DHT22;2702;51.014;7.170;2022-12-07T03:23:33;3.70;99.90
5358;DHT22;2702;51.014;7.170;2022-12-07T03:26:01;3.80;99.90
5358;DHT22;2702;51.014;7.170;2022-12-07T03:28:33;3.70;99.90
5358;DHT22;2702;51.014;7.170;2022-12-07T03:31:26;3.70;99.90
5358;DHT22;2702;51.014;7.170;2022-12-07T03:37:28;3.70;99.90
5358;DHT22;2702;51.014;7.170;2022-12-07T03:41:11;3.70;99.90
5358;DHT22;2702;51.014;7.170;2022-12-07T03:43:17;3.70;99.90
5358;DHT22;2702;51.014;7.170;2022-12-07T03:45:56;3.70;99.90
5358;DHT22;2702;51.014;7.170;2022-12-07T03:54:04;3.60;99.90
5358;DHT22;2702;51.014;7.170;2022-12-07T03:56:32;3.70;99.90
5358;DHT22;2702;51.014;7.170;2022-12-07T03:58:58;3.70;99.90
5358;DHT22;2702;51.014;7.170;2022-12-07T04:01:24;3.60;99.90
5358;DHT22;2702;51.014;7.170;2022-12-07T04:03:50;3.70;99.90
5358;DHT22;2702;51.014;7.170;2022-12-07T04:06:16;3.60;99.90
5358;DHT22;2702;51.014;7.170;2022-12-07T04:08:42;3.70;99.90
5358;DHT22;2702;51.014;7.170;2022-12-07T04:11:08;3.70;99.90
5358;DHT22;2702;51.014;7.170;2022-12-07T04:13:34;3.70;99.90
5358;DHT22;2702;51.014;7.170;2022-12-07T04:16:20;3.60;99.90
5358;DHT22;2702;51.014;7.170;2022-12-07T04:18:46;3.60;99.90
5358;DHT22;2702;51.014;7.170;2022-12-07T04:21:12;3.60;99.90
5358;DHT22;2702;51.014;7.170;2022-12-07T04:23:38;3.60;99.90
5358;DHT22;2702;51.014;7.170;2022-12-07T04:26:03;3.80;99.90
5358;DHT22;2702;51.014;7.170;2022-12-07T04:28:29;3.70;99.90
5358;DHT22;2702;51.014;7.170;2022-12-07T04:30:55;3.70;99.90
5358;DHT22;2702;51.014;7.170;2022-12-07T04:33:21;3.70;99.90
5358;DHT22;2702;51.014;7.170;2022-12-07T04:35:47;3.70;99.90
5358;DHT22;2702;51.014;7.170;2022-12-07T04:38:12;3.70;99.90
5358;DHT22;2702;51.014;7.170;2022-12-07T04:40:38;3.70;99.90
5358;DHT22;2702;51.014;7.170;2022-12-07T04:43:04;3.70;99.90
5358;DHT22;2702;51.014;7.170;2022-12-07T04:45:30;3.60;99.90
5358;DHT22;2702;51.014;7.170;2022-12-07T04:47:56;3.70;99.90
5358;DHT22;2702;51.014;7.170;2022-12-07T04:50:22;3.60;99.90
5358;DHT22;2702;51.014;7.170;2022-12-07T04:52:47;3.60;99.90
5358;DHT22;2702;51.014;7.170;2022-12-07T04:55:13;3.60;99.90
5358;DHT22;2702;51.014;7.170;2022-12-07T04:57:39;3.70;99.90
5358;DHT22;2702;51.014;7.170;2022-12-07T05:00:06;3.70;99.90
5358;DHT22;2702;51.014;7.170;2022-12-07T05:02:32;3.70;99.90
5358;DHT22;2702;51.014;7.170;2022-12-07T05:04:58;3.60;99.90
5358;DHT22;2702;51.014;7.170;2022-12-07T05:07:24;3.60;99.90
5358;DHT22;2702;51.014;7.170;2022-12-07T05:09:49;3.60;99.90
5358;DHT22;2702;51.014;7.170;2022-12-07T05:12:15;3.60;99.90
5358;DHT22;2702;51.014;7.170;2022-12-07T05:14:41;3.60;99.90
5358;DHT22;2702;51.014;7.170;2022-12-07T05:17:07;3.50;99.90
5358;DHT22;2702;51.014;7.170;2022-12-07T05:19:32;3.50;99.90
5358;DHT22;2702;51.014;7.170;2022-12-07T05:21:58;3.60;99.90
5358;DHT22;2702;51.014;7.170;2022-12-07T05:24:24;3.60;99.90
5358;DHT22;2702;51.014;7.170;2022-12-07T05:26:50;3.60;99.90
5358;DHT22;2702;51.014;7.170;2022-12-07T05:29:17;3.60;99.90
5358;DHT22;2702;51.014;7.170;2022-12-07T05:31:43;3.60;99.90
5358;DHT22;2702;51.014;7.170;2022-12-07T05:34:10;3.60;99.90
5358;DHT22;2702;51.014;7.170;2022-12-07T05:36:36;3.60;99.90
5358;DHT22;2702;51.014;7.170;2022-12-07T05:39:02;3.60;99.90
5358;DHT22;2702;51.014;7.170;2022-12-07T05:41:28;3.60;99.90
5358;DHT22;2702;51.014;7.170;2022-12-07T05:44:12;3.50;99.90
5358;DHT22;2702;51.014;7.170;2022-12-07T05:46:38;3.40;99.90
5358;DHT22;2702;51.014;7.170;2022-12-07T05:49:04;3.40;99.90
5358;DHT22;2702;51.014;7.170;2022-12-07T05:51:30;3.40;99.90
5358;DHT22;2702;51.014;7.170;2022-12-07T05:53:56;3.40;99.90
5358;DHT22;2702;51.014;7.170;2022-12-07T05:56:22;3.40;99.90
5358;DHT22;2702;51.014;7.170;2022-12-07T05:58:48;3.40;99.90
5358;DHT22;2702;51.014;7.170;2022-12-07T06:01:32;3.50;99.90
5358;DHT22;2702;51.014;7.170;2022-12-07T06:03:58;3.50;99.90
5358;DHT22;2702;51.014;7.170;2022-12-07T06:06:24;3.60;99.90
5358;DHT22;2702;51.014;7.170;2022-12-07T06:08:50;3.50;99.90
5358;DHT22;2702;51.014;7.170;2022-12-07T06:11:16;3.60;99.90
5358;DHT22;2702;51.014;7.170;2022-12-07T06:14:00;3.60;99.90
5358;DHT22;2702;51.014;7.170;2022-12-07T06:16:26;3.60;99.90
5358;DHT22;2702;51.014;7.170;2022-12-07T06:18:52;3.70;99.90
5358;DHT22;2702;51.014;7.170;2022-12-07T06:21:17;3.60;99.90
5358;DHT22;2702;51.014;7.170;2022-12-07T06:23:43;3.50;99.90
5358;DHT22;2702;51.014;7.170;2022-12-07T06:26:09;3.50;99.90
5358;DHT22;2702;51.014;7.170;2022-12-07T06:28:35;3.60;99.90
5358;DHT22;2702;51.014;7.170;2022-12-07T06:31:02;3.50;99.90
5358;DHT22;2702;51.014;7.170;2022-12-07T06:33:28;3.60;99.90
5358;DHT22;2702;51.014;7.170;2022-12-07T06:35:54;3.70;99.90
5358;DHT22;2702;51.014;7.170;2022-12-07T06:38:20;3.70;99.90
5358;DHT22;2702;51.014;7.170;2022-12-07T06:40:46;3.60;99.90
5358;DHT22;2702;51.014;7.170;2022-12-07T06:43:12;3.60;99.90
5358;DHT22;2702;51.014;7.170;2022-12-07T06:45:38;3.60;99.90
5358;DHT22;2702;51.014;7.170;2022-12-07T06:48:04;3.60;99.90
5358;DHT22;2702;51.014;7.170;2022-12-07T06:50:30;3.60;99.90
5358;DHT22;2702;51.014;7.170;2022-12-07T06:52:55;3.60;99.90
5358;DHT22;2702;51.014;7.170;2022-12-07T06:55:22;3.60;99.90
5358;DHT22;2702;51.014;7.170;2022-12-07T06:57:48;3.60;99.90
5358;DHT22;2702;51.014;7.170;2022-12-07T07:00:14;3.60;99.90
5358;DHT22;2702;51.014;7.170;2022-12-07T07:02:40;3.60;99.90
5358;DHT22;2702;51.014;7.170;2022-12-07T07:05:06;3.60;99.90
5358;DHT22;2702;51.014;7.170;2022-12-07T07:07:32;3.70;99.90
5358;DHT22;2702;51.014;7.170;2022-12-07T07:09:58;3.60;99.90
5358;DHT22;2702;51.014;7.170;2022-12-07T07:12:24;3.50;99.90
5358;DHT22;2702;51.014;7.170;2022-12-07T07:14:49;3.60;99.90
5358;DHT22;2702;51.014;7.170;2022-12-07T07:17:15;3.50;99.90
5358;DHT22;2702;51.014;7.170;2022-12-07T07:19:41;3.60;99.90
5358;DHT22;2702;51.014;7.170;2022-12-07T07:22:07;3.60;99.90
5358;DHT22;2702;51.014;7.170;2022-12-07T07:24:33;3.60;99.90
5358;DHT22;2702;51.014;7.170;2022-12-07T07:26:58;3.50;99.90
5358;DHT22;2702;51.014;7.170;2022-12-07T07:29:24;3.50;99.90
5358;DHT22;2702;51.014;7.170;2022-12-07T07:31:50;3.50;99.90
5358;DHT22;2702;51.014;7.170;2022-12-07T07:34:16;3.50;99.90
5358;DHT22;2702;51.014;7.170;2022-12-07T07:36:42;3.50;99.90
5358;DHT22;2702;51.014;7.170;2022-12-07T07:39:09;3.50;99.90
5358;DHT22;2702;51.014;7.170;2022-12-07T07:41:35;3.50;99.90
5358;DHT22;2702;51.014;7.170;2022-12-07T07:44:01;3.60;99.90
5358;DHT22;2702;51.014;7.170;2022-12-07T07:46:27;3.50;99.90
5358;DHT22;2702;51.014;7.170;2022-12-07T07:48:53;3.50;99.90
5358;DHT22;2702;51.014;7.170;2022-12-07T07:51:18;3.50;99.90
5358;DHT22;2702;51.014;7.170;2022-12-07T07:53:44;3.50;99.90
5358;DHT22;2702;51.014;7.170;2022-12-07T07:56:10;3.50;99.90
5358;DHT22;2702;51.014;7.170;2022-12-07T07:58:36;3.50;99.90
5358;DHT22;2702;51.014;7.170;2022-12-07T08:01:06;3.60;99.90
5358;DHT22;2702;51.014;7.170;2022-12-07T08:03:32;3.60;99.90
5358;DHT22;2702;51.014;7.170;2022-12-07T08:05:58;3.50;99.90
5358;DHT22;2702;51.014;7.170;2022-12-07T08:08:24;3.50;99.90
5358;DHT22;2702;51.014;7.170;2022-12-07T08:10:49;3.50;99.90
5358;DHT22;2702;51.014;7.170;2022-12-07T08:13:16;3.60;99.90
5358;DHT22;2702;51.014;7.170;2022-12-07T08:15:44;3.70;99.90
5358;DHT22;2702;51.014;7.170;2022-12-07T08:18:11;3.70;99.90
5358;DHT22;2702;51.014;7.170;2022-12-07T08:20:38;3.70;99.90
5358;DHT22;2702;51.014;7.170;2022-12-07T08:23:04;3.80;99.90
5358;DHT22;2702;51.014;7.170;2022-12-07T08:25:32;3.80;99.90
5358;DHT22;2702;51.014;7.170;2022-12-07T08:27:58;3.90;99.90
5358;DHT22;2702;51.014;7.170;2022-12-07T08:30:27;3.80;99.90
5358;DHT22;2702;51.014;7.170;2022-12-07T08:32:53;3.80;99.90
5358;DHT22;2702;51.014;7.170;2022-12-07T08:35:22;3.90;99.90
5358;DHT22;2702;51.014;7.170;2022-12-07T08:37:48;3.80;99.90
5358;DHT22;2702;51.014;7.170;2022-12-07T08:40:15;3.80;99.90
5358;DHT22;2702;51.014;7.170;2022-12-07T08:42:48;3.80;99.90
5358;DHT22;2702;51.014;7.170;2022-12-07T08:45:14;3.70;99.90
5358;DHT22;2702;51.014;7.170;2022-12-07T08:47:49;3.70;99.90
5358;DHT22;2702;51.014;7.170;2022-12-07T08:50:17;3.70;99.90
5358;DHT22;2702;51.014;7.170;2022-12-07T08:52:43;3.60;99.90
5358;DHT22;2702;51.014;7.170;2022-12-07T08:55:12;3.60;99.90
5358;DHT22;2702;51.014;7.170;2022-12-07T08:57:39;3.60;99.90
5358;DHT22;2702;51.014;7.170;2022-12-07T09:00:06;3.60;99.90
5358;DHT22;2702;51.014;7.170;2022-12-07T09:02:33;3.60;99.90
5358;DHT22;2702;51.014;7.170;2022-12-07T09:04:59;3.60;99.90
5358;DHT22;2702;51.014;7.170;2022-12-07T09:07:25;3.70;99.90
5358;DHT22;2702;51.014;7.170;2022-12-07T09:09:51;3.70;99.90
5358;DHT22;2702;51.014;7.170;2022-12-07T09:12:17;3.70;99.90
5358;DHT22;2702;51.014;7.170;2022-12-07T09:14:43;3.90;99.90
5358;DHT22;2702;51.014;7.170;2022-12-07T09:17:11;3.80;99.90
5358;DHT22;2702;51.014;7.170;2022-12-07T09:19:37;3.90;99.90
5358;DHT22;2702;51.014;7.170;2022-12-07T09:22:04;3.80;99.90
5358;DHT22;2702;51.014;7.170;2022-12-07T09:24:31;3.80;99.90
5358;DHT22;2702;51.014;7.170;2022-12-07T09:26:58;3.90;99.90
5358;DHT22;2702;51.014;7.170;2022-12-07T09:29:24;3.90;99.90
5358;DHT22;2702;51.014;7.170;2022-12-07T09:31:51;4.00;99.90
5358;DHT22;2702;51.014;7.170;2022-12-07T09:34:17;4.00;99.90
5358;DHT22;2702;51.014;7.170;2022-12-07T09:36:43;4.00;99.90
5358;DHT22;2702;51.014;7.170;2022-12-07T09:39:10;4.10;99.90
5358;DHT22;2702;51.014;7.170;2022-12-07T09:41:40;4.10;99.90
5358;DHT22;2702;51.014;7.170;2022-12-07T09:44:23;4.00;99.90
5358;DHT22;2702;51.014;7.170;2022-12-07T09:46:49;4.00;99.90
5358;DHT22;2702;51.014;7.170;2022-12-07T09:49:24;4.00;99.90
5358;DHT22;2702;51.014;7.170;2022-12-07T09:52:16;4.20;99.90
5358;DHT22;2702;51.014;7.170;2022-12-07T09:54:47;4.20;99.90
5358;DHT22;2702;51.014;7.170;2022-12-07T09:57:14;4.30;99.90
5358;DHT22;2702;51.014;7.170;2022-12-07T09:59:40;4.10;99.90
5358;DHT22;2702;51.014;7.170;2022-12-07T10:02:35;4.20;99.90
5358;DHT22;2702;51.014;7.170;2022-12-07T10:05:06;4.20;99.90
5358;DHT22;2702;51.014;7.170;2022-12-07T10:07:32;4.00;99.90
5358;DHT22;2702;51.014;7.170;2022-12-07T10:09:58;4.00;99.90
5358;DHT22;2702;51.014;7.170;2022-12-07T10:12:24;4.10;99.90
5358;DHT22;2702;51.014;7.170;2022-12-07T10:15:00;4.20;99.90
5358;DHT22;2702;51.014;7.170;2022-12-07T10:17:32;4.20;99.90
5358;DHT22;2702;51.014;7.170;2022-12-07T10:20:18;4.20;99.90
5358;DHT22;2702;51.014;7.170;2022-12-07T10:23:00;4.20;99.90
5358;DHT22;2702;51.014;7.170;2022-12-07T10:25:30;4.20;99.90
5358;DHT22;2702;51.014;7.170;2022-12-07T10:30:25;4.30;99.90
5358;DHT22;2702;51.014;7.170;2022-12-07T10:32:52;4.40;99.90
5358;DHT22;2702;51.014;7.170;2022-12-07T10:35:27;4.30;99.90
5358;DHT22;2702;51.014;7.170;2022-12-07T10:37:55;4.40;99.90
5358;DHT22;2702;51.014;7.170;2022-12-07T10:40:28;4.40;99.90
5358;DHT22;2702;51.014;7.170;2022-12-07T10:58:49;4.60;99.90
5358;DHT22;2702;51.014;7.170;2022-12-07T11:01:25;4.60;99.90
5358;DHT22;2702;51.014;7.170;2022-12-07T11:15:28;4.60;99.90
5358;DHT22;2702;51.014;7.170;2022-12-07T11:18:16;4.60;99.90
5358;DHT22;2702;51.014;7.170;2022-12-07T11:26:41;4.50;99.90
5358;DHT22;2702;51.014;7.170;2022-12-07T11:29:43;4.60;99.90
5358;DHT22;2702;51.014;7.170;2022-12-07T11:35:11;4.50;99.90
5358;DHT22;2702;51.014;7.170;2022-12-07T11:37:40;4.50;99.90
5358;DHT22;2702;51.014;7.170;2022-12-07T11:40:42;4.50;99.90
5358;DHT22;2702;51.014;7.170;2022-12-07T11:43:32;4.50;99.90
5358;DHT22;2702;51.014;7.170;2022-12-07T11:46:14;4.50;99.90
5358;DHT22;2702;51.014;7.170;2022-12-07T11:48:49;4.40;99.90
5358;DHT22;2702;51.014;7.170;2022-12-07T11:51:19;4.40;99.90
5358;DHT22;2702;51.014;7.170;2022-12-07T11:53:53;4.40;99.90
5358;DHT22;2702;51.014;7.170;2022-12-07T11:56:22;4.40;99.90
5358;DHT22;2702;51.014;7.170;2022-12-07T11:58:55;4.50;99.90
5358;DHT22;2702;51.014;7.170;2022-12-07T12:06:41;4.50;99.90
5358;DHT22;2702;51.014;7.170;2022-12-07T12:22:43;4.50;99.90
5358;DHT22;2702;51.014;7.170;2022-12-07T12:25:21;4.40;99.90
5358;DHT22;2702;51.014;7.170;2022-12-07T12:27:50;4.40;99.90
5358;DHT22;2702;51.014;7.170;2022-12-07T12:30:43;4.30;99.90
5358;DHT22;2702;51.014;7.170;2022-12-07T12:33:28;4.30;99.90
5358;DHT22;2702;51.014;7.170;2022-12-07T12:54:23;4.70;99.90
5358;DHT22;2702;51.014;7.170;2022-12-07T13:02:35;4.80;99.90
5358;DHT22;2702;51.014;7.170;2022-12-07T13:05:14;4.70;99.90
5358;DHT22;2702;51.014;7.170;2022-12-07T13:15:50;4.70;99.90
5358;DHT22;2702;51.014;7.170;2022-12-07T13:23:58;4.60;99.90
5358;DHT22;2702;51.014;7.170;2022-12-07T13:31:45;4.70;99.90
5358;DHT22;2702;51.014;7.170;2022-12-07T13:34:40;4.80;99.90
5358;DHT22;2702;51.014;7.170;2022-12-07T13:39:59;4.80;99.90
5358;DHT22;2702;51.014;7.170;2022-12-07T13:42:34;4.90;99.90
5358;DHT22;2702;51.014;7.170;2022-12-07T13:45:20;4.90;99.90
5358;DHT22;2702;51.014;7.170;2022-12-07T13:47:53;5.00;99.90
5358;DHT22;2702;51.014;7.170;2022-12-07T13:50:33;5.10;99.90
5358;DHT22;2702;51.014;7.170;2022-12-07T13:53:00;5.10;99.90
5358;DHT22;2702;51.014;7.170;2022-12-07T13:55:28;5.20;99.90
5358;DHT22;2702;51.014;7.170;2022-12-07T13:57:55;5.20;99.90
5358;DHT22;2702;51.014;7.170;2022-12-07T14:00:24;5.00;99.90
5358;DHT22;2702;51.014;7.170;2022-12-07T14:03:18;4.90;99.90
5358;DHT22;2702;51.014;7.170;2022-12-07T14:05:45;4.80;99.90
5358;DHT22;2702;51.014;7.170;2022-12-07T14:10:52;4.80;99.90
5358;DHT22;2702;51.014;7.170;2022-12-07T14:13:39;4.80;99.90
5358;DHT22;2702;51.014;7.170;2022-12-07T14:16:24;4.90;99.90
5358;DHT22;2702;51.014;7.170;2022-12-07T14:18:51;5.10;99.90
5358;DHT22;2702;51.014;7.170;2022-12-07T14:21:19;5.00;99.90
5358;DHT22;2702;51.014;7.170;2022-12-07T14:24:15;5.00;99.90
5358;DHT22;2702;51.014;7.170;2022-12-07T14:26:42;5.00;99.90
5358;DHT22;2702;51.014;7.170;2022-12-07T14:29:32;5.00;99.90
5358;DHT22;2702;51.014;7.170;2022-12-07T14:32:24;5.10;99.90
5358;DHT22;2702;51.014;7.170;2022-12-07T14:35:11;5.10;99.90
5358;DHT22;2702;51.014;7.170;2022-12-07T14:37:38;5.00;99.90
5358;DHT22;2702;51.014;7.170;2022-12-07T14:40:05;5.10;99.90
5358;DHT22;2702;51.014;7.170;2022-12-07T14:42:33;5.20;99.90
5358;DHT22;2702;51.014;7.170;2022-12-07T14:45:00;5.20;99.90
5358;DHT22;2702;51.014;7.170;2022-12-07T14:47:26;5.30;99.90
5358;DHT22;2702;51.014;7.170;2022-12-07T14:49:52;5.30;99.90
5358;DHT22;2702;51.014;7.170;2022-12-07T14:52:37;5.40;99.90
5358;DHT22;2702;51.014;7.170;2022-12-07T14:55:07;5.30;99.90
5358;DHT22;2702;51.014;7.170;2022-12-07T14:57:35;5.30;99.90
5358;DHT22;2702;51.014;7.170;2022-12-07T15:00:01;5.20;99.90
5358;DHT22;2702;51.014;7.170;2022-12-07T15:02:27;5.10;99.90
5358;DHT22;2702;51.014;7.170;2022-12-07T15:04:52;5.10;99.90
5358;DHT22;2702;51.014;7.170;2022-12-07T15:07:20;5.00;99.90
5358;DHT22;2702;51.014;7.170;2022-12-07T15:09:47;5.10;99.90
5358;DHT22;2702;51.014;7.170;2022-12-07T15:12:13;5.20;99.90
5358;DHT22;2702;51.014;7.170;2022-12-07T15:14:39;5.20;99.90
5358;DHT22;2702;51.014;7.170;2022-12-07T15:17:05;5.30;99.90
5358;DHT22;2702;51.014;7.170;2022-12-07T15:19:30;5.30;99.90
5358;DHT22;2702;51.014;7.170;2022-12-07T15:21:57;5.40;99.90
5358;DHT22;2702;51.014;7.170;2022-12-07T15:24:23;5.50;99.90
5358;DHT22;2702;51.014;7.170;2022-12-07T15:26:49;5.60;99.90
5358;DHT22;2702;51.014;7.170;2022-12-07T15:29:15;5.50;99.90
5358;DHT22;2702;51.014;7.170;2022-12-07T15:31:42;5.40;99.90
5358;DHT22;2702;51.014;7.170;2022-12-07T15:34:08;5.20;99.90
5358;DHT22;2702;51.014;7.170;2022-12-07T15:36:34;5.20;99.90
5358;DHT22;2702;51.014;7.170;2022-12-07T15:39:00;5.40;99.90
5358;DHT22;2702;51.014;7.170;2022-12-07T15:41:27;5.40;99.90
5358;DHT22;2702;51.014;7.170;2022-12-07T15:43:52;5.50;99.90
5358;DHT22;2702;51.014;7.170;2022-12-07T15:46:39;5.50;99.90
5358;DHT22;2702;51.014;7.170;2022-12-07T15:49:20;5.50;99.90
5358;DHT22;2702;51.014;7.170;2022-12-07T15:51:46;5.50;99.90
5358;DHT22;2702;51.014;7.170;2022-12-07T15:54:21;5.40;99.90
5358;DHT22;2702;51.014;7.170;2022-12-07T15:56:47;5.20;99.90
5358;DHT22;2702;51.014;7.170;2022-12-07T15:59:13;5.00;99.90
5358;DHT22;2702;51.014;7.170;2022-12-07T16:01:39;5.10;99.90
5358;DHT22;2702;51.014;7.170;2022-12-07T16:04:05;4.90;99.90
5358;DHT22;2702;51.014;7.170;2022-12-07T16:06:31;4.80;99.90
5358;DHT22;2702;51.014;7.170;2022-12-07T16:08:57;4.90;99.90
5358;DHT22;2702;51.014;7.170;2022-12-07T16:11:23;4.80;99.90
5358;DHT22;2702;51.014;7.170;2022-12-07T16:13:49;4.80;99.90
5358;DHT22;2702;51.014;7.170;2022-12-07T16:16:17;4.70;99.90
5358;DHT22;2702;51.014;7.170;2022-12-07T16:18:46;4.70;99.90
5358;DHT22;2702;51.014;7.170;2022-12-07T16:21:13;4.60;99.90
5358;DHT22;2702;51.014;7.170;2022-12-07T16:23:40;4.50;99.90
5358;DHT22;2702;51.014;7.170;2022-12-07T16:26:12;4.50;99.90
5358;DHT22;2702;51.014;7.170;2022-12-07T16:28:39;4.50;99.90
5358;DHT22;2702;51.014;7.170;2022-12-07T16:31:07;4.60;99.90
5358;DHT22;2702;51.014;7.170;2022-12-07T16:33:36;4.50;99.90
5358;DHT22;2702;51.014;7.170;2022-12-07T16:36:04;4.60;99.90
5358;DHT22;2702;51.014;7.170;2022-12-07T16:38:30;4.60;99.90
5358;DHT22;2702;51.014;7.170;2022-12-07T16:40:56;4.60;99.90
5358;DHT22;2702;51.014;7.170;2022-12-07T16:43:22;4.60;99.90
5358;DHT22;2702;51.014;7.170;2022-12-07T16:45:48;4.60;99.90
5358;DHT22;2702;51.014;7.170;2022-12-07T16:48:16;4.40;99.90
5358;DHT22;2702;51.014;7.170;2022-12-07T16:50:43;4.40;99.90
5358;DHT22;2702;51.014;7.170;2022-12-07T16:53:11;4.40;99.90
5358;DHT22;2702;51.014;7.170;2022-12-07T16:55:38;4.50;99.90
5358;DHT22;2702;51.014;7.170;2022-12-07T16:58:06;4.40;99.90
5358;DHT22;2702;51.014;7.170;2022-12-07T17:00:32;4.40;99.90
5358;DHT22;2702;51.014;7.170;2022-12-07T17:02:58;4.50;99.90
5358;DHT22;2702;51.014;7.170;2022-12-07T17:05:25;4.50;99.90
5358;DHT22;2702;51.014;7.170;2022-12-07T17:07:52;4.30;99.90
5358;DHT22;2702;51.014;7.170;2022-12-07T17:10:18;4.30;99.90
5358;DHT22;2702;51.014;7.170;2022-12-07T17:12:44;4.30;99.90
5358;DHT22;2702;51.014;7.170;2022-12-07T17:15:10;4.20;99.90
5358;DHT22;2702;51.014;7.170;2022-12-07T17:17:53;4.20;99.90
5358;DHT22;2702;51.014;7.170;2022-12-07T17:20:21;4.20;99.90
5358;DHT22;2702;51.014;7.170;2022-12-07T17:22:47;4.20;99.90
5358;DHT22;2702;51.014;7.170;2022-12-07T17:25:13;4.00;99.90
5358;DHT22;2702;51.014;7.170;2022-12-07T17:27:40;4.00;99.90
5358;DHT22;2702;51.014;7.170;2022-12-07T17:30:07;4.00;99.90
5358;DHT22;2702;51.014;7.170;2022-12-07T17:32:33;4.00;99.90
5358;DHT22;2702;51.014;7.170;2022-12-07T17:34:58;4.00;99.90
5358;DHT22;2702;51.014;7.170;2022-12-07T17:37:25;4.10;99.90
5358;DHT22;2702;51.014;7.170;2022-12-07T17:39:52;4.20;99.90
5358;DHT22;2702;51.014;7.170;2022-12-07T17:42:21;4.20;99.90
5358;DHT22;2702;51.014;7.170;2022-12-07T17:45:07;4.20;99.90
5358;DHT22;2702;51.014;7.170;2022-12-07T17:47:35;4.20;99.90
5358;DHT22;2702;51.014;7.170;2022-12-07T17:50:03;4.10;99.90
5358;DHT22;2702;51.014;7.170;2022-12-07T17:52:29;4.10;99.90
5358;DHT22;2702;51.014;7.170;2022-12-07T17:55:14;4.20;99.90
5358;DHT22;2702;51.014;7.170;2022-12-07T17:57:39;4.10;99.90
5358;DHT22;2702;51.014;7.170;2022-12-07T18:00:06;4.10;99.90
5358;DHT22;2702;51.014;7.170;2022-12-07T18:02:33;4.00;99.90
5358;DHT22;2702;51.014;7.170;2022-12-07T18:04:59;4.10;99.90
5358;DHT22;2702;51.014;7.170;2022-12-07T18:07:24;4.20;99.90
5358;DHT22;2702;51.014;7.170;2022-12-07T18:09:50;4.20;99.90
5358;DHT22;2702;51.014;7.170;2022-12-07T18:12:16;4.30;99.90
5358;DHT22;2702;51.014;7.170;2022-12-07T18:14:42;4.30;99.90
5358;DHT22;2702;51.014;7.170;2022-12-07T18:17:08;4.40;99.90
5358;DHT22;2702;51.014;7.170;2022-12-07T18:19:33;4.50;99.90
5358;DHT22;2702;51.014;7.170;2022-12-07T18:22:03;4.50;99.90
5358;DHT22;2702;51.014;7.170;2022-12-07T18:24:29;4.60;99.90
5358;DHT22;2702;51.014;7.170;2022-12-07T18:26:55;4.60;99.90
5358;DHT22;2702;51.014;7.170;2022-12-07T18:29:20;4.60;99.90
5358;DHT22;2702;51.014;7.170;2022-12-07T18:31:46;4.60;99.90
5358;DHT22;2702;51.014;7.170;2022-12-07T18:34:14;4.60;99.90
5358;DHT22;2702;51.014;7.170;2022-12-07T18:36:43;4.60;99.90
5358;DHT22;2702;51.014;7.170;2022-12-07T18:39:13;4.60;99.90
5358;DHT22;2702;51.014;7.170;2022-12-07T18:41:39;4.70;99.90
5358;DHT22;2702;51.014;7.170;2022-12-07T18:44:06;4.70;99.90
5358;DHT22;2702;51.014;7.170;2022-12-07T18:46:33;4.60;99.90
5358;DHT22;2702;51.014;7.170;2022-12-07T18:48:59;4.70;99.90
5358;DHT22;2702;51.014;7.170;2022-12-07T18:51:26;4.60;99.90